sensor_id;sensor_type;location;lat;lon;timestamp;P1;durP1;ratioP1;P2;durP2;ratioP2
50531;SDS011;36483;37.396;-122.212;2023-02-11T00:01:26;8.05;;;1.67;;
50531;SDS011;36483;37.396;-122.212;2023-02-11T00:03:57;7.00;;;1.77;;
50531;SDS011;36483;37.396;-122.212;2023-02-11T00:06:24;7.97;;;1.80;;
50531;SDS011;36483;37.396;-122.212;2023-02-11T00:08:52;8.60;;;2.10;;
50531;SDS011;36483;37.396;-122.212;2023-02-11T00:11:19;5.45;;;1.80;;
50531;SDS011;36483;37.396;-122.212;2023-02-11T00:13:47;7.15;;;1.88;;
50531;SDS011;36483;37.396;-122.212;2023-02-11T00:16:14;6.38;;;1.77;;
50531;SDS011;36483;37.396;-122.212;2023-02-11T00:18:42;6.43;;;1.50;;
50531;SDS011;36483;37.396;-122.212;2023-02-11T00:21:12;4.55;;;1.60;;
50531;SDS011;36483;37.396;-122.212;2023-02-11T00:23:40;7.00;;;1.30;;
50531;SDS011;36483;37.396;-122.212;2023-02-11T00:26:26;6.13;;;1.35;;
50531;SDS011;36483;37.396;-122.212;2023-02-11T00:28:59;7.50;;;1.42;;
50531;SDS011;36483;37.396;-122.212;2023-02-11T00:31:26;4.20;;;0.98;;
50531;SDS011;36483;37.396;-122.212;2023-02-11T00:33:52;3.13;;;1.13;;
50531;SDS011;36483;37.396;-122.212;2023-02-11T00:36:23;4.25;;;1.02;;
50531;SDS011;36483;37.396;-122.212;2023-02-11T00:38:50;3.75;;;1.00;;
50531;SDS011;36483;37.396;-122.212;2023-02-11T00:41:18;4.60;;;1.00;;
50531;SDS011;36483;37.396;-122.212;2023-02-11T00:43:45;3.55;;;0.90;;
50531;SDS011;36483;37.396;-122.212;2023-02-11T00:46:12;5.25;;;1.05;;
50531;SDS011;36483;37.396;-122.212;2023-02-11T00:48:38;4.72;;;0.90;;
50531;SDS011;36483;37.396;-122.212;2023-02-11T00:51:05;2.92;;;0.80;;
50531;SDS011;36483;37.396;-122.212;2023-02-11T00:53:31;6.05;;;1.17;;
50531;SDS011;36483;37.396;-122.212;2023-02-11T00:55:58;4.28;;;1.00;;
50531;SDS011;36483;37.396;-122.212;2023-02-11T00:58:25;3.55;;;0.90;;
50531;SDS011;36483;37.396;-122.212;2023-02-11T01:00:52;5.53;;;0.93;;
50531;SDS011;36483;37.396;-122.212;2023-02-11T01:03:19;5.45;;;1.33;;
50531;SDS011;36483;37.396;-122.212;2023-02-11T01:05:45;5.38;;;1.05;;
50531;SDS011;36483;37.396;-122.212;2023-02-11T01:08:11;5.13;;;1.10;;
50531;SDS011;36483;37.396;-122.212;2023-02-11T01:10:37;3.42;;;1.00;;
50531;SDS011;36483;37.396;-122.212;2023-02-11T01:13:04;6.97;;;1.25;;
50531;SDS011;36483;37.396;-122.212;2023-02-11T01:15:31;3.60;;;1.05;;
50531;SDS011;36483;37.396;-122.212;2023-02-11T01:17:57;6.25;;;1.27;;
50531;SDS011;36483;37.396;-122.212;2023-02-11T01:20:25;5.68;;;1.17;;
50531;SDS011;36483;37.396;-122.212;2023-02-11T01:22:52;4.05;;;1.00;;
50531;SDS011;36483;37.396;-122.212;2023-02-11T01:25:18;5.28;;;1.10;;
50531;SDS011;36483;37.396;-122.212;2023-02-11T01:27:44;4.35;;;1.02;;
50531;SDS011;36483;37.396;-122.212;2023-02-11T01:30:12;4.85;;;1.00;;
50531;SDS011;36483;37.396;-122.212;2023-02-11T01:32:39;4.22;;;0.93;;
50531;SDS011;36483;37.396;-122.212;2023-02-11T01:35:05;3.05;;;1.10;;
50531;SDS011;36483;37.396;-122.212;2023-02-11T01:37:32;4.93;;;1.50;;
50531;SDS011;36483;37.396;-122.212;2023-02-11T01:40:00;6.45;;;1.38;;
50531;SDS011;36483;37.396;-122.212;2023-02-11T01:42:27;7.43;;;1.92;;
50531;SDS011;36483;37.396;-122.212;2023-02-11T01:44:53;5.38;;;1.60;;
50531;SDS011;36483;37.396;-122.212;2023-02-11T01:47:21;9.75;;;1.95;;
50531;SDS011;36483;37.396;-122.212;2023-02-11T01:49:48;7.68;;;1.60;;
50531;SDS011;36483;37.396;-122.212;2023-02-11T01:52:19;7.78;;;1.35;;
50531;SDS011;36483;37.396;-122.212;2023-02-11T01:54:48;7.90;;;1.90;;
50531;SDS011;36483;37.396;-122.212;2023-02-11T01:57:35;5.63;;;1.50;;
50531;SDS011;36483;37.396;-122.212;2023-02-11T02:00:06;10.35;;;1.65;;
50531;SDS011;36483;37.396;-122.212;2023-02-11T02:02:34;4.85;;;1.30;;
50531;SDS011;36483;37.396;-122.212;2023-02-11T02:07:49;8.85;;;1.55;;
50531;SDS011;36483;37.396;-122.212;2023-02-11T02:10:38;9.90;;;2.13;;
50531;SDS011;36483;37.396;-122.212;2023-02-11T02:13:07;5.38;;;1.40;;
50531;SDS011;36483;37.396;-122.212;2023-02-11T02:15:34;6.80;;;1.50;;
50531;SDS011;36483;37.396;-122.212;2023-02-11T02:18:48;7.28;;;1.40;;
50531;SDS011;36483;37.396;-122.212;2023-02-11T02:35:15;9.25;;;1.80;;
50531;SDS011;36483;37.396;-122.212;2023-02-11T02:38:05;5.85;;;1.88;;
50531;SDS011;36483;37.396;-122.212;2023-02-11T02:40:56;8.48;;;1.88;;
50531;SDS011;36483;37.396;-122.212;2023-02-11T02:43:26;9.40;;;2.28;;
50531;SDS011;36483;37.396;-122.212;2023-02-11T02:45:52;14.07;;;2.28;;
50531;SDS011;36483;37.396;-122.212;2023-02-11T02:48:28;9.55;;;2.30;;
50531;SDS011;36483;37.396;-122.212;2023-02-11T02:51:06;7.97;;;1.83;;
50531;SDS011;36483;37.396;-122.212;2023-02-11T02:56:51;8.45;;;2.30;;
50531;SDS011;36483;37.396;-122.212;2023-02-11T02:59:24;13.90;;;2.80;;
50531;SDS011;36483;37.396;-122.212;2023-02-11T03:02:23;7.75;;;2.20;;
50531;SDS011;36483;37.396;-122.212;2023-02-11T03:05:15;9.43;;;2.50;;
50531;SDS011;36483;37.396;-122.212;2023-02-11T03:10:42;9.20;;;2.10;;
50531;SDS011;36483;37.396;-122.212;2023-02-11T03:13:12;10.70;;;2.07;;
50531;SDS011;36483;37.396;-122.212;2023-02-11T03:15:42;11.85;;;2.47;;
50531;SDS011;36483;37.396;-122.212;2023-02-11T03:18:10;7.07;;;1.95;;
50531;SDS011;36483;37.396;-122.212;2023-02-11T03:20:40;14.75;;;2.30;;
50531;SDS011;36483;37.396;-122.212;2023-02-11T03:23:18;9.23;;;2.63;;
50531;SDS011;36483;37.396;-122.212;2023-02-11T03:25:56;10.70;;;2.25;;
50531;SDS011;36483;37.396;-122.212;2023-02-11T03:31:05;9.52;;;2.25;;
50531;SDS011;36483;37.396;-122.212;2023-02-11T03:33:39;9.10;;;2.20;;
50531;SDS011;36483;37.396;-122.212;2023-02-11T03:37:08;11.13;;;2.80;;
50531;SDS011;36483;37.396;-122.212;2023-02-11T03:39:20;13.18;;;2.30;;
50531;SDS011;36483;37.396;-122.212;2023-02-11T03:41:52;6.72;;;1.98;;
50531;SDS011;36483;37.396;-122.212;2023-02-11T03:44:20;8.93;;;2.17;;
50531;SDS011;36483;37.396;-122.212;2023-02-11T03:46:48;9.60;;;2.10;;
50531;SDS011;36483;37.396;-122.212;2023-02-11T03:49:16;7.88;;;1.92;;
50531;SDS011;36483;37.396;-122.212;2023-02-11T03:51:44;7.57;;;2.22;;
50531;SDS011;36483;37.396;-122.212;2023-02-11T03:54:13;11.48;;;2.45;;
50531;SDS011;36483;37.396;-122.212;2023-02-11T03:56:43;11.52;;;2.00;;
50531;SDS011;36483;37.396;-122.212;2023-02-11T03:59:16;10.45;;;2.38;;
50531;SDS011;36483;37.396;-122.212;2023-02-11T04:01:42;10.48;;;2.40;;
50531;SDS011;36483;37.396;-122.212;2023-02-11T04:04:08;6.45;;;2.10;;
50531;SDS011;36483;37.396;-122.212;2023-02-11T04:06:35;10.88;;;2.10;;
50531;SDS011;36483;37.396;-122.212;2023-02-11T04:09:01;9.02;;;2.15;;
50531;SDS011;36483;37.396;-122.212;2023-02-11T04:11:28;10.88;;;2.13;;
50531;SDS011;36483;37.396;-122.212;2023-02-11T04:13:54;10.18;;;2.47;;
50531;SDS011;36483;37.396;-122.212;2023-02-11T04:16:20;12.27;;;2.10;;
50531;SDS011;36483;37.396;-122.212;2023-02-11T04:18:46;9.57;;;2.00;;
50531;SDS011;36483;37.396;-122.212;2023-02-11T04:21:12;9.23;;;1.70;;
50531;SDS011;36483;37.396;-122.212;2023-02-11T04:23:38;10.90;;;2.33;;
50531;SDS011;36483;37.396;-122.212;2023-02-11T04:26:05;8.27;;;1.77;;
50531;SDS011;36483;37.396;-122.212;2023-02-11T04:28:31;8.38;;;1.75;;
50531;SDS011;36483;37.396;-122.212;2023-02-11T04:30:59;9.13;;;2.00;;
50531;SDS011;36483;37.396;-122.212;2023-02-11T04:33:25;8.20;;;2.03;;
50531;SDS011;36483;37.396;-122.212;2023-02-11T04:35:51;10.10;;;1.75;;
50531;SDS011;36483;37.396;-122.212;2023-02-11T04:38:17;9.38;;;1.85;;
50531;SDS011;36483;37.396;-122.212;2023-02-11T04:40:43;6.18;;;1.95;;
50531;SDS011;36483;37.396;-122.212;2023-02-11T04:43:09;8.93;;;2.10;;
50531;SDS011;36483;37.396;-122.212;2023-02-11T04:45:36;8.20;;;2.08;;
50531;SDS011;36483;37.396;-122.212;2023-02-11T04:48:02;7.85;;;1.60;;
50531;SDS011;36483;37.396;-122.212;2023-02-11T04:50:28;10.85;;;2.60;;
50531;SDS011;36483;37.396;-122.212;2023-02-11T04:52:55;7.10;;;2.00;;
50531;SDS011;36483;37.396;-122.212;2023-02-11T04:55:21;6.72;;;1.95;;
50531;SDS011;36483;37.396;-122.212;2023-02-11T04:57:47;6.72;;;1.67;;
50531;SDS011;36483;37.396;-122.212;2023-02-11T05:00:13;5.63;;;1.83;;
50531;SDS011;36483;37.396;-122.212;2023-02-11T05:02:40;9.05;;;2.22;;
50531;SDS011;36483;37.396;-122.212;2023-02-11T05:05:06;10.98;;;2.20;;
50531;SDS011;36483;37.396;-122.212;2023-02-11T05:07:33;6.85;;;1.92;;
50531;SDS011;36483;37.396;-122.212;2023-02-11T05:09:59;7.22;;;2.10;;
50531;SDS011;36483;37.396;-122.212;2023-02-11T05:12:26;9.48;;;2.17;;
50531;SDS011;36483;37.396;-122.212;2023-02-11T05:14:52;7.75;;;2.00;;
50531;SDS011;36483;37.396;-122.212;2023-02-11T05:17:18;8.45;;;1.90;;
50531;SDS011;36483;37.396;-122.212;2023-02-11T05:19:44;9.70;;;2.40;;
50531;SDS011;36483;37.396;-122.212;2023-02-11T05:22:10;5.40;;;1.83;;
50531;SDS011;36483;37.396;-122.212;2023-02-11T05:24:36;8.18;;;2.20;;
50531;SDS011;36483;37.396;-122.212;2023-02-11T05:27:02;7.18;;;1.85;;
50531;SDS011;36483;37.396;-122.212;2023-02-11T05:29:29;10.20;;;1.88;;
50531;SDS011;36483;37.396;-122.212;2023-02-11T05:31:55;8.15;;;2.00;;
50531;SDS011;36483;37.396;-122.212;2023-02-11T05:34:22;8.52;;;2.22;;
50531;SDS011;36483;37.396;-122.212;2023-02-11T05:36:49;7.72;;;1.80;;
50531;SDS011;36483;37.396;-122.212;2023-02-11T05:39:15;8.35;;;1.92;;
50531;SDS011;36483;37.396;-122.212;2023-02-11T05:41:41;9.18;;;2.40;;
50531;SDS011;36483;37.396;-122.212;2023-02-11T05:44:07;6.63;;;1.80;;
50531;SDS011;36483;37.396;-122.212;2023-02-11T05:46:33;8.52;;;2.00;;
50531;SDS011;36483;37.396;-122.212;2023-02-11T05:48:59;10.80;;;2.30;;
50531;SDS011;36483;37.396;-122.212;2023-02-11T05:51:26;7.90;;;2.38;;
50531;SDS011;36483;37.396;-122.212;2023-02-11T05:53:52;8.52;;;1.75;;
50531;SDS011;36483;37.396;-122.212;2023-02-11T05:56:19;8.80;;;2.60;;
50531;SDS011;36483;37.396;-122.212;2023-02-11T05:58:45;9.77;;;2.20;;
50531;SDS011;36483;37.396;-122.212;2023-02-11T06:01:11;9.50;;;2.20;;
50531;SDS011;36483;37.396;-122.212;2023-02-11T06:03:37;8.63;;;2.33;;
50531;SDS011;36483;37.396;-122.212;2023-02-11T06:06:03;11.52;;;2.42;;
50531;SDS011;36483;37.396;-122.212;2023-02-11T06:08:30;8.20;;;2.08;;
50531;SDS011;36483;37.396;-122.212;2023-02-11T06:10:56;8.13;;;2.38;;
50531;SDS011;36483;37.396;-122.212;2023-02-11T06:13:22;8.85;;;2.30;;
50531;SDS011;36483;37.396;-122.212;2023-02-11T06:15:55;10.00;;;2.05;;
50531;SDS011;36483;37.396;-122.212;2023-02-11T06:18:22;8.13;;;2.10;;
50531;SDS011;36483;37.396;-122.212;2023-02-11T06:20:48;7.47;;;2.40;;
50531;SDS011;36483;37.396;-122.212;2023-02-11T06:23:14;10.70;;;2.97;;
50531;SDS011;36483;37.396;-122.212;2023-02-11T06:25:40;10.18;;;2.38;;
50531;SDS011;36483;37.396;-122.212;2023-02-11T06:28:06;15.85;;;2.38;;
50531;SDS011;36483;37.396;-122.212;2023-02-11T06:30:35;8.68;;;2.13;;
50531;SDS011;36483;37.396;-122.212;2023-02-11T06:33:01;11.60;;;2.60;;
50531;SDS011;36483;37.396;-122.212;2023-02-11T06:35:28;11.38;;;2.75;;
50531;SDS011;36483;37.396;-122.212;2023-02-11T06:37:54;10.70;;;2.33;;
50531;SDS011;36483;37.396;-122.212;2023-02-11T06:40:20;8.25;;;2.30;;
50531;SDS011;36483;37.396;-122.212;2023-02-11T06:42:47;13.18;;;1.92;;
50531;SDS011;36483;37.396;-122.212;2023-02-11T06:45:13;7.90;;;2.20;;
50531;SDS011;36483;37.396;-122.212;2023-02-11T06:47:39;8.77;;;1.90;;
50531;SDS011;36483;37.396;-122.212;2023-02-11T06:50:06;5.65;;;2.25;;
50531;SDS011;36483;37.396;-122.212;2023-02-11T06:52:35;7.65;;;2.20;;
50531;SDS011;36483;37.396;-122.212;2023-02-11T06:55:01;13.02;;;2.50;;
50531;SDS011;36483;37.396;-122.212;2023-02-11T06:57:28;10.40;;;2.35;;
50531;SDS011;36483;37.396;-122.212;2023-02-11T06:59:54;6.15;;;1.60;;
50531;SDS011;36483;37.396;-122.212;2023-02-11T07:02:20;8.38;;;2.10;;
50531;SDS011;36483;37.396;-122.212;2023-02-11T07:04:47;8.43;;;2.28;;
50531;SDS011;36483;37.396;-122.212;2023-02-11T07:07:13;7.07;;;2.28;;
50531;SDS011;36483;37.396;-122.212;2023-02-11T07:09:39;11.32;;;2.28;;
50531;SDS011;36483;37.396;-122.212;2023-02-11T07:12:05;7.10;;;2.38;;
50531;SDS011;36483;37.396;-122.212;2023-02-11T07:14:33;8.90;;;1.77;;
50531;SDS011;36483;37.396;-122.212;2023-02-11T07:16:59;9.15;;;1.90;;
50531;SDS011;36483;37.396;-122.212;2023-02-11T07:19:26;6.90;;;1.80;;
50531;SDS011;36483;37.396;-122.212;2023-02-11T07:21:52;8.63;;;2.10;;
50531;SDS011;36483;37.396;-122.212;2023-02-11T07:24:19;7.47;;;2.00;;
50531;SDS011;36483;37.396;-122.212;2023-02-11T07:26:45;6.68;;;1.90;;
50531;SDS011;36483;37.396;-122.212;2023-02-11T07:29:11;12.00;;;2.25;;
50531;SDS011;36483;37.396;-122.212;2023-02-11T07:31:38;8.43;;;2.10;;
50531;SDS011;36483;37.396;-122.212;2023-02-11T07:34:04;8.98;;;2.08;;
50531;SDS011;36483;37.396;-122.212;2023-02-11T07:36:30;7.03;;;1.60;;
50531;SDS011;36483;37.396;-122.212;2023-02-11T07:38:56;6.32;;;1.77;;
50531;SDS011;36483;37.396;-122.212;2023-02-11T07:41:25;6.82;;;1.77;;
50531;SDS011;36483;37.396;-122.212;2023-02-11T07:43:52;9.07;;;1.80;;
50531;SDS011;36483;37.396;-122.212;2023-02-11T07:46:19;5.80;;;1.80;;
50531;SDS011;36483;37.396;-122.212;2023-02-11T07:48:50;8.32;;;1.42;;
50531;SDS011;36483;37.396;-122.212;2023-02-11T07:51:24;10.63;;;1.92;;
50531;SDS011;36483;37.396;-122.212;2023-02-11T07:53:52;7.65;;;1.55;;
50531;SDS011;36483;37.396;-122.212;2023-02-11T07:56:20;7.97;;;1.90;;
50531;SDS011;36483;37.396;-122.212;2023-02-11T07:58:46;8.35;;;2.03;;
50531;SDS011;36483;37.396;-122.212;2023-02-11T08:01:18;5.90;;;1.58;;
50531;SDS011;36483;37.396;-122.212;2023-02-11T08:03:46;5.43;;;1.40;;
50531;SDS011;36483;37.396;-122.212;2023-02-11T08:06:14;4.93;;;1.60;;
50531;SDS011;36483;37.396;-122.212;2023-02-11T08:08:42;6.22;;;1.48;;
50531;SDS011;36483;37.396;-122.212;2023-02-11T08:11:18;5.45;;;1.80;;
50531;SDS011;36483;37.396;-122.212;2023-02-11T08:13:52;6.50;;;1.45;;
50531;SDS011;36483;37.396;-122.212;2023-02-11T08:16:29;5.43;;;1.85;;
50531;SDS011;36483;37.396;-122.212;2023-02-11T08:19:01;7.82;;;1.23;;
50531;SDS011;36483;37.396;-122.212;2023-02-11T08:21:28;4.80;;;1.30;;
50531;SDS011;36483;37.396;-122.212;2023-02-11T08:23:54;5.13;;;1.50;;
50531;SDS011;36483;37.396;-122.212;2023-02-11T08:26:22;6.65;;;1.50;;
50531;SDS011;36483;37.396;-122.212;2023-02-11T08:28:53;6.22;;;1.50;;
50531;SDS011;36483;37.396;-122.212;2023-02-11T08:31:32;5.95;;;1.60;;
50531;SDS011;36483;37.396;-122.212;2023-02-11T08:33:59;5.05;;;1.45;;
50531;SDS011;36483;37.396;-122.212;2023-02-11T08:36:33;6.57;;;1.33;;
50531;SDS011;36483;37.396;-122.212;2023-02-11T08:39:02;6.63;;;1.73;;
50531;SDS011;36483;37.396;-122.212;2023-02-11T08:41:30;7.03;;;1.25;;
50531;SDS011;36483;37.396;-122.212;2023-02-11T08:43:57;4.90;;;1.38;;
50531;SDS011;36483;37.396;-122.212;2023-02-11T08:46:23;7.10;;;1.48;;
50531;SDS011;36483;37.396;-122.212;2023-02-11T08:48:49;3.33;;;1.10;;
50531;SDS011;36483;37.396;-122.212;2023-02-11T08:51:17;4.32;;;1.20;;
50531;SDS011;36483;37.396;-122.212;2023-02-11T08:53:44;5.85;;;1.52;;
50531;SDS011;36483;37.396;-122.212;2023-02-11T08:56:11;4.80;;;1.10;;
50531;SDS011;36483;37.396;-122.212;2023-02-11T08:58:38;5.30;;;1.33;;
50531;SDS011;36483;37.396;-122.212;2023-02-11T09:01:09;8.38;;;1.35;;
50531;SDS011;36483;37.396;-122.212;2023-02-11T09:03:39;6.65;;;1.30;;
50531;SDS011;36483;37.396;-122.212;2023-02-11T09:06:06;8.48;;;1.52;;
50531;SDS011;36483;37.396;-122.212;2023-02-11T09:08:34;6.65;;;1.80;;
50531;SDS011;36483;37.396;-122.212;2023-02-11T09:11:01;5.65;;;1.45;;
50531;SDS011;36483;37.396;-122.212;2023-02-11T09:13:28;5.43;;;1.17;;
50531;SDS011;36483;37.396;-122.212;2023-02-11T09:15:54;3.97;;;1.20;;
50531;SDS011;36483;37.396;-122.212;2023-02-11T09:18:21;9.27;;;1.30;;
50531;SDS011;36483;37.396;-122.212;2023-02-11T09:20:47;6.13;;;1.20;;
50531;SDS011;36483;37.396;-122.212;2023-02-11T09:23:13;4.25;;;1.13;;
50531;SDS011;36483;37.396;-122.212;2023-02-11T09:25:40;5.97;;;1.30;;
50531;SDS011;36483;37.396;-122.212;2023-02-11T09:28:06;7.65;;;1.95;;
50531;SDS011;36483;37.396;-122.212;2023-02-11T09:30:34;6.00;;;1.58;;
50531;SDS011;36483;37.396;-122.212;2023-02-11T09:33:01;4.25;;;1.35;;
50531;SDS011;36483;37.396;-122.212;2023-02-11T09:35:28;5.10;;;1.15;;
50531;SDS011;36483;37.396;-122.212;2023-02-11T09:37:54;6.72;;;1.40;;
50531;SDS011;36483;37.396;-122.212;2023-02-11T09:40:20;6.65;;;1.42;;
50531;SDS011;36483;37.396;-122.212;2023-02-11T09:42:49;6.72;;;1.25;;
50531;SDS011;36483;37.396;-122.212;2023-02-11T09:45:23;8.65;;;1.50;;
50531;SDS011;36483;37.396;-122.212;2023-02-11T09:50:27;7.13;;;1.48;;
50531;SDS011;36483;37.396;-122.212;2023-02-11T09:53:01;5.95;;;1.27;;
50531;SDS011;36483;37.396;-122.212;2023-02-11T09:55:38;7.68;;;1.60;;
50531;SDS011;36483;37.396;-122.212;2023-02-11T09:58:10;6.68;;;1.50;;
50531;SDS011;36483;37.396;-122.212;2023-02-11T10:00:42;5.60;;;1.40;;
50531;SDS011;36483;37.396;-122.212;2023-02-11T10:03:34;4.95;;;1.38;;
50531;SDS011;36483;37.396;-122.212;2023-02-11T10:17:39;7.45;;;1.33;;
50531;SDS011;36483;37.396;-122.212;2023-02-11T10:20:29;9.90;;;1.38;;
50531;SDS011;36483;37.396;-122.212;2023-02-11T10:25:46;7.68;;;1.58;;
50531;SDS011;36483;37.396;-122.212;2023-02-11T10:28:18;6.47;;;1.42;;
50531;SDS011;36483;37.396;-122.212;2023-02-11T10:30:55;6.60;;;1.55;;
50531;SDS011;36483;37.396;-122.212;2023-02-11T10:33:35;6.70;;;1.42;;
50531;SDS011;36483;37.396;-122.212;2023-02-11T10:36:16;6.70;;;1.40;;
50531;SDS011;36483;37.396;-122.212;2023-02-11T10:38:43;9.35;;;1.40;;
50531;SDS011;36483;37.396;-122.212;2023-02-11T10:41:16;8.45;;;1.60;;
50531;SDS011;36483;37.396;-122.212;2023-02-11T10:43:44;8.82;;;1.40;;
50531;SDS011;36483;37.396;-122.212;2023-02-11T10:46:21;9.35;;;1.55;;
50531;SDS011;36483;37.396;-122.212;2023-02-11T10:48:51;5.60;;;1.38;;
50531;SDS011;36483;37.396;-122.212;2023-02-11T10:51:22;6.00;;;1.48;;
50531;SDS011;36483;37.396;-122.212;2023-02-11T10:56:50;6.82;;;1.65;;
50531;SDS011;36483;37.396;-122.212;2023-02-11T10:59:27;5.28;;;1.20;;
50531;SDS011;36483;37.396;-122.212;2023-02-11T11:02:01;7.63;;;1.90;;
50531;SDS011;36483;37.396;-122.212;2023-02-11T11:04:36;6.20;;;1.35;;
50531;SDS011;36483;37.396;-122.212;2023-02-11T11:09:49;9.75;;;1.60;;
50531;SDS011;36483;37.396;-122.212;2023-02-11T11:12:30;5.93;;;1.40;;
50531;SDS011;36483;37.396;-122.212;2023-02-11T11:17:48;6.82;;;1.63;;
50531;SDS011;36483;37.396;-122.212;2023-02-11T11:20:33;6.55;;;1.42;;
50531;SDS011;36483;37.396;-122.212;2023-02-11T11:23:09;6.55;;;1.50;;
50531;SDS011;36483;37.396;-122.212;2023-02-11T11:25:36;6.05;;;1.42;;
50531;SDS011;36483;37.396;-122.212;2023-02-11T11:28:04;7.88;;;1.80;;
50531;SDS011;36483;37.396;-122.212;2023-02-11T11:30:32;7.10;;;1.23;;
50531;SDS011;36483;37.396;-122.212;2023-02-11T11:33:04;5.78;;;1.40;;
50531;SDS011;36483;37.396;-122.212;2023-02-11T11:38:35;7.30;;;1.35;;
50531;SDS011;36483;37.396;-122.212;2023-02-11T11:41:13;7.28;;;1.35;;
50531;SDS011;36483;37.396;-122.212;2023-02-11T11:43:56;2.75;;;0.95;;
50531;SDS011;36483;37.396;-122.212;2023-02-11T11:46:28;3.30;;;1.08;;
50531;SDS011;36483;37.396;-122.212;2023-02-11T11:49:00;4.70;;;1.15;;
50531;SDS011;36483;37.396;-122.212;2023-02-11T11:51:33;3.30;;;1.02;;
50531;SDS011;36483;37.396;-122.212;2023-02-11T11:54:04;6.40;;;1.30;;
50531;SDS011;36483;37.396;-122.212;2023-02-11T11:56:34;3.90;;;1.00;;
50531;SDS011;36483;37.396;-122.212;2023-02-11T11:59:08;5.15;;;1.05;;
50531;SDS011;36483;37.396;-122.212;2023-02-11T12:07:10;6.07;;;1.08;;
50531;SDS011;36483;37.396;-122.212;2023-02-11T12:18:02;3.38;;;0.80;;
50531;SDS011;36483;37.396;-122.212;2023-02-11T12:23:47;2.55;;;0.60;;
50531;SDS011;36483;37.396;-122.212;2023-02-11T12:27:14;1.42;;;0.47;;
50531;SDS011;36483;37.396;-122.212;2023-02-11T12:29:41;2.03;;;0.77;;
50531;SDS011;36483;37.396;-122.212;2023-02-11T12:43:38;3.58;;;0.60;;
50531;SDS011;36483;37.396;-122.212;2023-02-11T12:54:37;1.65;;;0.60;;
50531;SDS011;36483;37.396;-122.212;2023-02-11T12:57:15;1.38;;;0.50;;
50531;SDS011;36483;37.396;-122.212;2023-02-11T13:05:03;2.92;;;0.95;;
50531;SDS011;36483;37.396;-122.212;2023-02-11T13:07:50;2.33;;;0.65;;
50531;SDS011;36483;37.396;-122.212;2023-02-11T13:10:37;2.17;;;0.70;;
50531;SDS011;36483;37.396;-122.212;2023-02-11T13:13:25;1.63;;;0.55;;
50531;SDS011;36483;37.396;-122.212;2023-02-11T13:15:59;2.60;;;0.77;;
50531;SDS011;36483;37.396;-122.212;2023-02-11T13:18:35;4.45;;;0.70;;
50531;SDS011;36483;37.396;-122.212;2023-02-11T13:24:00;2.63;;;0.70;;
50531;SDS011;36483;37.396;-122.212;2023-02-11T13:26:40;2.47;;;0.70;;
50531;SDS011;36483;37.396;-122.212;2023-02-11T13:29:27;1.98;;;0.60;;
50531;SDS011;36483;37.396;-122.212;2023-02-11T13:31:55;2.53;;;0.77;;
50531;SDS011;36483;37.396;-122.212;2023-02-11T13:37:25;1.55;;;0.60;;
50531;SDS011;36483;37.396;-122.212;2023-02-11T13:42:49;1.35;;;0.60;;
50531;SDS011;36483;37.396;-122.212;2023-02-11T13:45:17;1.40;;;0.60;;
50531;SDS011;36483;37.396;-122.212;2023-02-11T13:48:04;2.08;;;0.57;;
50531;SDS011;36483;37.396;-122.212;2023-02-11T13:50:38;2.33;;;0.60;;
50531;SDS011;36483;37.396;-122.212;2023-02-11T13:53:12;2.35;;;0.70;;
50531;SDS011;36483;37.396;-122.212;2023-02-11T13:55:39;1.77;;;0.55;;
50531;SDS011;36483;37.396;-122.212;2023-02-11T14:00:45;3.65;;;0.90;;
50531;SDS011;36483;37.396;-122.212;2023-02-11T14:03:36;1.75;;;0.60;;
50531;SDS011;36483;37.396;-122.212;2023-02-11T14:06:21;1.45;;;0.60;;
50531;SDS011;36483;37.396;-122.212;2023-02-11T14:19:56;1.23;;;0.60;;
50531;SDS011;36483;37.396;-122.212;2023-02-11T14:22:21;2.03;;;0.70;;
50531;SDS011;36483;37.396;-122.212;2023-02-11T14:24:52;1.83;;;0.68;;
50531;SDS011;36483;37.396;-122.212;2023-02-11T14:30:27;1.35;;;0.65;;
50531;SDS011;36483;37.396;-122.212;2023-02-11T14:35:27;0.90;;;0.63;;
50531;SDS011;36483;37.396;-122.212;2023-02-11T14:38:00;1.58;;;0.80;;
50531;SDS011;36483;37.396;-122.212;2023-02-11T14:43:12;3.58;;;0.88;;
50531;SDS011;36483;37.396;-122.212;2023-02-11T14:45:43;1.35;;;0.73;;
50531;SDS011;36483;37.396;-122.212;2023-02-11T14:48:16;1.50;;;0.68;;
50531;SDS011;36483;37.396;-122.212;2023-02-11T14:50:53;2.28;;;0.73;;
50531;SDS011;36483;37.396;-122.212;2023-02-11T14:53:44;1.45;;;0.63;;
50531;SDS011;36483;37.396;-122.212;2023-02-11T14:56:17;2.20;;;0.80;;
50531;SDS011;36483;37.396;-122.212;2023-02-11T14:58:46;2.45;;;1.15;;
50531;SDS011;36483;37.396;-122.212;2023-02-11T15:04:05;2.05;;;0.70;;
50531;SDS011;36483;37.396;-122.212;2023-02-11T15:06:50;2.30;;;0.63;;
50531;SDS011;36483;37.396;-122.212;2023-02-11T15:09:21;2.72;;;0.70;;
50531;SDS011;36483;37.396;-122.212;2023-02-11T15:11:52;1.77;;;0.75;;
50531;SDS011;36483;37.396;-122.212;2023-02-11T15:14:23;2.42;;;1.08;;
50531;SDS011;36483;37.396;-122.212;2023-02-11T15:16:51;2.30;;;0.82;;
50531;SDS011;36483;37.396;-122.212;2023-02-11T15:21:51;1.45;;;0.80;;
50531;SDS011;36483;37.396;-122.212;2023-02-11T15:27:01;2.13;;;1.13;;
50531;SDS011;36483;37.396;-122.212;2023-02-11T15:29:41;2.10;;;0.90;;
50531;SDS011;36483;37.396;-122.212;2023-02-11T15:32:15;2.25;;;0.90;;
50531;SDS011;36483;37.396;-122.212;2023-02-11T15:34:49;2.55;;;1.00;;
50531;SDS011;36483;37.396;-122.212;2023-02-11T15:39:47;1.80;;;0.90;;
50531;SDS011;36483;37.396;-122.212;2023-02-11T15:42:26;2.92;;;1.00;;
50531;SDS011;36483;37.396;-122.212;2023-02-11T15:47:45;1.95;;;0.77;;
50531;SDS011;36483;37.396;-122.212;2023-02-11T15:50:22;1.35;;;0.80;;
50531;SDS011;36483;37.396;-122.212;2023-02-11T15:52:50;4.13;;;1.13;;
50531;SDS011;36483;37.396;-122.212;2023-02-11T15:55:17;3.13;;;0.85;;
50531;SDS011;36483;37.396;-122.212;2023-02-11T15:57:54;1.20;;;0.90;;
50531;SDS011;36483;37.396;-122.212;2023-02-11T16:00:23;1.98;;;0.98;;
50531;SDS011;36483;37.396;-122.212;2023-02-11T16:02:51;2.20;;;0.90;;
50531;SDS011;36483;37.396;-122.212;2023-02-11T16:05:27;1.67;;;0.88;;
50531;SDS011;36483;37.396;-122.212;2023-02-11T16:07:55;3.20;;;0.70;;
50531;SDS011;36483;37.396;-122.212;2023-02-11T16:18:13;3.70;;;1.23;;
50531;SDS011;36483;37.396;-122.212;2023-02-11T16:20:46;1.60;;;1.00;;
50531;SDS011;36483;37.396;-122.212;2023-02-11T16:23:13;2.72;;;1.00;;
50531;SDS011;36483;37.396;-122.212;2023-02-11T16:25:48;2.65;;;1.00;;
50531;SDS011;36483;37.396;-122.212;2023-02-11T16:28:16;2.75;;;1.10;;
50531;SDS011;36483;37.396;-122.212;2023-02-11T16:30:42;4.50;;;1.10;;
50531;SDS011;36483;37.396;-122.212;2023-02-11T16:33:09;2.65;;;1.00;;
50531;SDS011;36483;37.396;-122.212;2023-02-11T16:35:36;3.58;;;1.42;;
50531;SDS011;36483;37.396;-122.212;2023-02-11T16:38:02;2.38;;;0.90;;
50531;SDS011;36483;37.396;-122.212;2023-02-11T16:40:28;1.67;;;1.02;;
50531;SDS011;36483;37.396;-122.212;2023-02-11T16:42:54;2.67;;;0.98;;
50531;SDS011;36483;37.396;-122.212;2023-02-11T16:45:20;2.88;;;1.10;;
50531;SDS011;36483;37.396;-122.212;2023-02-11T16:47:46;1.85;;;1.17;;
50531;SDS011;36483;37.396;-122.212;2023-02-11T16:50:22;2.88;;;1.02;;
50531;SDS011;36483;37.396;-122.212;2023-02-11T16:52:49;2.25;;;1.17;;
50531;SDS011;36483;37.396;-122.212;2023-02-11T16:55:17;3.55;;;1.15;;